Terminal Aerodrome Forecast
Issued by NWS Amarillo, TX

Home | Current Version | Previous Version | Text Only | Print | Product List | Glossary On
Versions: 1 2 3 4 5 6 7 8 9 10 11 12 13 14 15 16 17 18 19 20
000
FTUS44 KAMA 182300
TAFDHT
TAF
KDHT 182334Z 1900/1924 10006KT P6SM BKN300
     FM190200 11007KT P6SM OVC012
     FM190600 VRB05KT 2SM BR OVC004
     FM191800 21004KT P6SM OVC010=

USA.gov is the U.S. government's official web portal to all federal, state and local government web resources and services.